createdAt,value
2018-06-21T00:00:08.904Z,8.40
2018-06-21T00:01:08.654Z,5.60
2018-06-21T00:02:08.635Z,8.10
2018-06-21T00:03:08.503Z,6.20
2018-06-21T00:04:08.568Z,9.40
2018-06-21T00:05:08.339Z,8.00
2018-06-21T00:06:08.399Z,8.50
2018-06-21T00:07:08.211Z,5.60
2018-06-21T00:08:08.172Z,5.50
2018-06-21T00:09:08.033Z,7.20
2018-06-21T00:10:08.076Z,9.30
2018-06-21T00:11:07.909Z,7.40
2018-06-21T00:12:07.880Z,5.70
2018-06-21T00:13:07.734Z,7.10
2018-06-21T00:14:07.694Z,6.70
2018-06-21T00:15:07.577Z,5.90
2018-06-21T00:16:08.460Z,5.40
2018-06-21T00:17:07.428Z,7.00
2018-06-21T00:28:30.970Z,7.60
2018-06-21T00:31:12.738Z,8.30
2018-06-21T00:32:12.759Z,5.60
2018-06-21T00:33:12.586Z,7.60
2018-06-21T00:34:12.518Z,7.50
2018-06-21T00:35:12.428Z,6.30
2018-06-21T00:36:12.447Z,7.40
2018-06-21T00:37:12.300Z,6.50
2018-06-21T00:38:12.250Z,5.70
2018-06-21T00:39:12.118Z,7.90
2018-06-21T00:40:12.215Z,6.10
2018-06-21T00:41:11.970Z,8.10
2018-06-21T00:42:12.000Z,5.80
2018-06-21T00:43:11.821Z,7.10
2018-06-21T00:44:11.774Z,9.50
2018-06-21T00:45:11.662Z,7.00
2018-06-21T00:46:11.698Z,7.30
2018-06-21T00:47:11.537Z,5.90
2018-06-21T00:48:11.494Z,7.50
2018-06-21T00:49:11.362Z,7.00
2018-06-21T00:50:11.311Z,7.30
2018-06-21T00:51:11.220Z,7.30
2018-06-21T00:52:11.224Z,8.10
2018-06-21T00:53:11.063Z,8.90
2018-06-21T00:54:11.024Z,8.90
2018-06-21T00:55:10.892Z,10.70
2018-06-21T00:56:10.956Z,14.90
2018-06-21T00:57:10.759Z,12.50
2018-06-21T00:58:10.794Z,14.10
2018-06-21T00:59:10.589Z,9.00
2018-06-21T01:00:10.514Z,12.70
2018-06-21T01:01:10.438Z,10.50
2018-06-21T01:02:10.458Z,12.20
2018-06-21T01:03:10.306Z,10.60
2018-06-21T01:04:10.263Z,11.00
2018-06-21T01:05:10.123Z,8.90
2018-06-21T01:06:10.091Z,15.20
2018-06-21T01:07:09.980Z,13.20
2018-06-21T01:08:10.052Z,9.20
2018-06-21T01:09:09.829Z,15.90
2018-06-21T01:10:09.796Z,12.60
2018-06-21T01:11:09.666Z,11.60
2018-06-21T01:12:09.709Z,12.30
2018-06-21T01:13:09.528Z,11.30
2018-06-21T01:15:51.749Z,10.20
2018-06-21T01:16:51.737Z,13.10
2018-06-21T01:17:51.595Z,14.30
2018-06-21T01:18:51.798Z,13.30
2018-06-21T01:19:51.436Z,12.90
2018-06-21T01:20:51.459Z,14.40
2018-06-21T01:21:51.308Z,12.50
2018-06-21T01:24:33.277Z,13.70
2018-06-21T01:27:15.282Z,15.80
2018-06-21T01:28:15.273Z,19.70
2018-06-21T01:29:15.130Z,16.50
2018-06-21T01:30:15.147Z,17.90
2018-06-21T01:31:14.964Z,17.70
2018-06-21T01:32:14.992Z,18.50
2018-06-21T01:33:14.785Z,15.20
2018-06-21T01:34:14.814Z,18.10
2018-06-21T01:35:14.644Z,16.60
2018-06-21T01:36:14.680Z,18.20
2018-06-21T01:37:14.480Z,17.70
2018-06-21T01:38:14.493Z,18.20
2018-06-21T01:39:14.368Z,16.50
2018-06-21T01:40:14.301Z,14.90
2018-06-21T01:41:14.185Z,12.30
2018-06-21T01:42:14.209Z,10.70
2018-06-21T01:43:14.009Z,11.50
2018-06-21T01:44:15.089Z,12.40
2018-06-21T01:45:13.864Z,10.70
2018-06-21T01:47:55.759Z,11.10
2018-06-21T01:48:55.719Z,10.40
2018-06-21T01:51:20.273Z,10.10
2018-06-21T01:52:20.222Z,9.70
2018-06-21T01:53:20.112Z,10.60
2018-06-21T01:54:20.118Z,11.50
2018-06-21T01:55:19.977Z,10.70
2018-06-21T01:56:19.927Z,10.10
2018-06-21T01:57:19.799Z,11.30
2018-06-21T01:58:20.132Z,12.20
2018-06-21T01:59:19.640Z,10.20
2018-06-21T02:00:19.599Z,11.30
2018-06-21T02:01:19.486Z,10.00
2018-06-21T02:02:19.507Z,12.30
2018-06-21T02:03:19.349Z,9.70
2018-06-21T02:04:19.398Z,10.30
2018-06-21T02:05:19.183Z,11.20
2018-06-21T02:06:19.179Z,11.20
2018-06-21T02:07:19.049Z,9.90
2018-06-21T02:08:18.987Z,10.40
2018-06-21T02:09:18.873Z,9.70
2018-06-21T02:10:18.897Z,11.40
2018-06-21T02:11:18.750Z,9.80
2018-06-21T02:15:00.769Z,10.40
2018-06-21T02:16:00.779Z,10.90
2018-06-21T02:17:00.616Z,10.40
2018-06-21T02:19:42.781Z,11.20
2018-06-21T02:20:42.768Z,12.20
2018-06-21T02:21:42.631Z,12.20
2018-06-21T02:22:42.675Z,10.40
2018-06-21T02:23:42.454Z,10.90
2018-06-21T02:24:42.445Z,11.30
2018-06-21T02:25:42.305Z,10.10
2018-06-21T02:26:42.270Z,13.80
2018-06-21T02:27:42.305Z,11.60
2018-06-21T02:28:42.164Z,11.10
2018-06-21T02:29:41.992Z,9.90
2018-06-21T02:30:41.980Z,12.20
2018-06-21T02:31:41.848Z,10.50
2018-06-21T02:32:41.841Z,9.60
2018-06-21T02:33:41.686Z,9.70
2018-06-21T02:36:23.788Z,10.00
2018-06-21T02:37:23.845Z,9.90
2018-06-21T02:38:23.612Z,11.40
2018-06-21T02:39:23.600Z,10.90
2018-06-21T02:40:23.465Z,11.40
2018-06-21T02:41:23.521Z,9.50
2018-06-21T02:42:23.338Z,8.80
2018-06-21T02:43:23.319Z,9.70
2018-06-21T02:44:23.212Z,9.20
2018-06-21T02:45:23.125Z,11.40
2018-06-21T02:46:23.000Z,10.40
2018-06-21T02:49:05.318Z,9.80
2018-06-21T02:50:05.235Z,8.70
2018-06-21T02:51:05.126Z,10.80
2018-06-21T02:52:05.158Z,9.20
2018-06-21T02:53:05.001Z,10.20
2018-06-21T02:54:06.023Z,8.80
2018-06-21T02:55:04.815Z,9.00
2018-06-21T02:56:04.771Z,9.70
2018-06-21T02:57:04.675Z,13.10
2018-06-21T02:58:04.675Z,12.70
2018-06-21T02:59:04.554Z,8.30
2018-06-21T03:00:04.488Z,9.70
2018-06-21T03:01:04.357Z,10.20
2018-06-21T03:02:04.294Z,12.10
2018-06-21T03:03:04.199Z,9.90
2018-06-21T03:04:04.319Z,10.50
2018-06-21T03:05:04.035Z,12.00
2018-06-21T03:06:04.023Z,12.00
2018-06-21T03:07:03.877Z,11.20
2018-06-21T03:08:03.924Z,12.50
2018-06-21T03:09:03.773Z,11.50
2018-06-21T03:10:03.766Z,12.80
2018-06-21T03:11:03.567Z,12.70
2018-06-21T03:12:03.507Z,14.30
2018-06-21T03:13:03.402Z,11.80
2018-06-21T03:14:03.385Z,12.50
2018-06-21T03:15:03.273Z,18.10
2018-06-21T03:16:03.270Z,14.90
2018-06-21T03:17:03.098Z,13.40
2018-06-21T03:18:03.078Z,12.20
2018-06-21T03:19:02.996Z,13.00
2018-06-21T03:20:02.977Z,11.80
2018-06-21T03:21:02.784Z,13.20
2018-06-21T03:23:44.808Z,17.00
2018-06-21T03:24:50.058Z,13.20
2018-06-21T03:25:44.625Z,15.30
2018-06-21T03:26:49.627Z,17.60
2018-06-21T03:27:44.494Z,18.00
2018-06-21T03:28:44.505Z,16.90
2018-06-21T03:29:44.368Z,15.70
2018-06-21T03:30:44.318Z,16.40
2018-06-21T03:31:44.162Z,13.40
2018-06-21T03:32:44.121Z,13.10
2018-06-21T03:33:44.007Z,12.60
2018-06-21T03:34:44.075Z,13.60
2018-06-21T03:35:43.857Z,13.70
2018-06-21T03:36:43.841Z,13.60
2018-06-21T03:37:43.699Z,10.40
2018-06-21T03:38:43.648Z,10.20
2018-06-21T03:39:43.546Z,13.70
2018-06-21T03:40:43.601Z,11.40
2018-06-21T03:41:43.385Z,8.70
2018-06-21T03:42:43.369Z,9.10
2018-06-21T03:43:43.238Z,9.90
2018-06-21T03:44:43.187Z,10.70
2018-06-21T03:45:43.090Z,12.10
2018-06-21T03:46:43.088Z,13.20
2018-06-21T03:47:42.936Z,8.60
2018-06-21T03:48:42.852Z,8.70
2018-06-21T03:49:42.762Z,8.80
2018-06-21T03:50:42.732Z,8.90
2018-06-21T03:51:42.766Z,9.20
2018-06-21T03:52:42.620Z,9.40
2018-06-21T03:53:42.438Z,8.90
2018-06-21T03:54:42.425Z,10.30
2018-06-21T03:55:42.291Z,9.40
2018-06-21T03:56:42.376Z,11.80
2018-06-21T03:57:42.152Z,11.30
2018-06-21T03:58:42.160Z,9.60
2018-06-21T03:59:41.989Z,9.10
2018-06-21T04:00:42.109Z,9.00
2018-06-21T04:01:41.835Z,8.70
2018-06-21T04:02:42.825Z,9.30
2018-06-21T04:03:41.671Z,12.20
2018-06-21T04:06:23.820Z,10.30
2018-06-21T04:07:23.794Z,11.30
2018-06-21T04:08:23.945Z,9.40
2018-06-21T04:09:23.596Z,10.90
2018-06-21T04:10:23.505Z,14.20
2018-06-21T04:11:23.499Z,9.30
2018-06-21T04:12:23.363Z,11.60
2018-06-21T04:13:23.337Z,49.40
2018-06-21T04:14:23.166Z,97.30
2018-06-21T04:15:23.225Z,52.00
2018-06-21T04:16:23.011Z,109.00
2018-06-21T04:19:05.364Z,20.00
2018-06-21T04:20:05.320Z,9.40
2018-06-21T04:21:05.148Z,11.10
2018-06-21T04:22:05.132Z,11.50
2018-06-21T04:23:04.989Z,11.70
2018-06-21T04:24:04.988Z,10.30
2018-06-21T04:25:04.843Z,16.30
2018-06-21T04:26:04.859Z,10.00
2018-06-21T04:27:04.680Z,13.90
2018-06-21T04:29:46.876Z,13.00
2018-06-21T04:30:46.758Z,10.20
2018-06-21T04:31:46.651Z,11.70
2018-06-21T04:32:46.665Z,9.70
2018-06-21T04:33:46.508Z,9.90
2018-06-21T04:34:46.426Z,10.20
2018-06-21T04:35:46.340Z,10.30
2018-06-21T04:36:46.284Z,13.10
2018-06-21T04:37:46.236Z,9.80
2018-06-21T04:38:46.174Z,10.90
2018-06-21T04:39:46.031Z,10.50
2018-06-21T04:40:45.950Z,10.10
2018-06-21T04:41:45.868Z,11.40
2018-06-21T04:42:45.807Z,10.10
2018-06-21T04:43:45.726Z,11.80
2018-06-21T04:44:46.652Z,9.80
2018-06-21T04:45:45.571Z,13.60
2018-06-21T04:46:48.393Z,12.00
2018-06-21T04:47:45.412Z,11.20
2018-06-21T04:48:45.360Z,13.50
2018-06-21T04:49:45.268Z,12.80
2018-06-21T04:52:27.319Z,12.00
2018-06-21T04:53:27.240Z,13.70
2018-06-21T04:54:27.192Z,13.30
2018-06-21T04:57:09.338Z,13.80
2018-06-21T04:58:09.245Z,12.90
2018-06-21T04:59:09.158Z,16.10
2018-06-21T05:00:09.157Z,13.70
2018-06-21T05:01:09.001Z,16.00
2018-06-21T05:03:51.328Z,15.20
2018-06-21T05:04:51.272Z,15.50
2018-06-21T05:05:51.189Z,15.00
2018-06-21T05:08:33.344Z,14.70
2018-06-21T05:09:33.253Z,12.90
2018-06-21T05:10:33.210Z,13.30
2018-06-21T05:11:33.095Z,15.10
2018-06-21T05:12:33.028Z,14.20
2018-06-21T05:13:32.944Z,16.40
2018-06-21T05:14:32.864Z,15.40
2018-06-21T05:15:32.844Z,15.80
2018-06-21T05:16:32.726Z,16.30
2018-06-21T05:19:14.841Z,18.30
2018-06-21T05:20:14.839Z,17.30
2018-06-21T05:21:14.685Z,17.80
2018-06-21T05:23:56.824Z,17.80
2018-06-21T05:24:56.753Z,19.00
2018-06-21T05:25:56.688Z,19.10
2018-06-21T05:26:56.600Z,21.20
2018-06-21T05:27:56.510Z,17.90
2018-06-21T05:28:56.450Z,20.20
2018-06-21T05:29:56.374Z,18.80
2018-06-21T05:30:56.302Z,18.70
2018-06-21T05:31:56.202Z,18.90
2018-06-21T05:36:56.124Z,20.80
2018-06-21T05:37:55.034Z,20.30
2018-06-21T05:40:36.854Z,21.20
2018-06-21T05:41:38.065Z,21.60
2018-06-21T05:42:36.688Z,21.00
2018-06-21T05:43:36.690Z,23.00
2018-06-21T05:44:36.518Z,21.60
2018-06-21T05:45:36.512Z,21.80
2018-06-21T05:46:36.391Z,21.40
2018-06-21T05:47:36.318Z,21.70
2018-06-21T05:48:36.201Z,23.20
2018-06-21T05:51:18.349Z,22.30
2018-06-21T05:52:18.363Z,22.50
2018-06-21T05:53:18.226Z,22.50
2018-06-21T05:54:18.236Z,22.60
2018-06-21T05:55:18.028Z,25.10
2018-06-21T05:56:18.044Z,23.20
2018-06-21T05:57:17.857Z,23.60
2018-06-21T06:00:25.337Z,23.30
2018-06-21T06:01:25.341Z,23.50
2018-06-21T06:02:25.202Z,23.40
2018-06-21T06:03:25.199Z,23.80
2018-06-21T06:04:25.048Z,24.20
2018-06-21T06:05:25.062Z,24.90
2018-06-21T06:06:24.872Z,26.30
2018-06-21T06:09:06.861Z,24.20
2018-06-21T06:10:06.909Z,23.70
2018-06-21T06:11:06.692Z,24.20
2018-06-21T06:12:06.679Z,23.10
2018-06-21T06:13:06.553Z,24.70
2018-06-21T06:14:06.551Z,24.10
2018-06-21T06:15:06.364Z,24.30
2018-06-21T06:16:06.427Z,24.20
2018-06-21T06:17:06.230Z,22.70
2018-06-21T06:18:06.220Z,23.00
2018-06-21T06:19:06.116Z,23.40
2018-06-21T06:20:06.037Z,22.30
2018-06-21T06:21:05.907Z,20.40
2018-06-21T06:22:05.953Z,22.20
2018-06-21T06:23:05.880Z,21.50
2018-06-21T06:24:06.807Z,22.10
2018-06-21T06:25:05.582Z,23.80
2018-06-21T06:26:05.542Z,23.50
2018-06-21T06:27:05.431Z,22.90
2018-06-21T06:28:05.451Z,23.10
2018-06-21T06:29:05.304Z,21.40
2018-06-21T06:31:47.336Z,22.20
2018-06-21T06:32:47.389Z,22.10
2018-06-21T06:33:47.195Z,21.50
2018-06-21T06:34:48.363Z,21.30
2018-06-21T06:35:47.034Z,21.10
2018-06-21T06:36:46.991Z,20.80
2018-06-21T06:37:46.881Z,20.50
2018-06-21T06:40:28.877Z,19.40
2018-06-21T06:43:10.850Z,19.10
2018-06-21T06:44:10.886Z,19.70
2018-06-21T06:45:10.705Z,19.40
2018-06-21T06:47:52.859Z,19.40
2018-06-21T06:50:34.867Z,18.30
2018-06-21T06:51:34.897Z,17.50
2018-06-21T06:52:34.719Z,16.70
2018-06-21T06:55:16.958Z,16.20
2018-06-21T06:57:58.860Z,15.50
2018-06-21T06:58:58.910Z,14.90
2018-06-21T06:59:58.702Z,14.40
2018-06-21T07:00:58.778Z,14.80
2018-06-21T07:01:58.549Z,14.30
2018-06-21T07:04:40.375Z,14.90
2018-06-21T07:05:40.346Z,13.90
2018-06-21T07:06:40.225Z,14.00
2018-06-21T07:07:40.319Z,14.30
2018-06-21T07:11:37.029Z,14.30
2018-06-21T07:12:37.104Z,13.70
2018-06-21T07:15:18.863Z,14.90
2018-06-21T07:18:00.912Z,13.30
2018-06-21T07:19:00.884Z,12.90
2018-06-21T07:20:00.700Z,13.40
2018-06-21T07:22:42.870Z,13.00
2018-06-21T07:25:07.366Z,12.60
2018-06-21T07:26:07.367Z,12.30
2018-06-21T07:27:07.246Z,12.50
2018-06-21T07:28:07.195Z,11.90
2018-06-21T07:29:07.048Z,14.00
2018-06-21T07:31:49.364Z,12.70
2018-06-21T07:32:49.443Z,13.80
2018-06-21T07:33:49.227Z,12.70
2018-06-21T07:34:49.206Z,11.30
2018-06-21T07:35:49.057Z,11.50
2018-06-21T07:36:49.065Z,10.90
2018-06-21T07:37:48.903Z,11.70
2018-06-21T07:40:30.919Z,12.80
2018-06-21T07:41:30.830Z,9.00
2018-06-21T07:43:40.475Z,9.20
2018-06-21T07:44:40.254Z,11.50
2018-06-21T07:45:41.330Z,9.90
2018-06-21T08:00:10.617Z,8.20
2018-06-21T08:01:10.579Z,7.10
2018-06-21T08:02:10.403Z,8.70
2018-06-21T08:03:10.326Z,6.90
2018-06-21T08:04:10.262Z,9.40
2018-06-21T08:05:10.244Z,8.50
2018-06-21T08:06:10.093Z,7.30
2018-06-21T08:08:52.399Z,4.80
2018-06-21T08:11:34.402Z,7.50
2018-06-21T08:12:34.427Z,7.60
2018-06-21T08:13:34.266Z,9.50
2018-06-21T08:14:35.306Z,6.80
2018-06-21T08:15:34.131Z,9.40
2018-06-21T08:16:34.024Z,6.90
2018-06-21T08:17:33.919Z,5.90
2018-06-21T08:18:34.892Z,5.90
2018-06-21T08:19:33.797Z,8.40
2018-06-21T08:20:33.735Z,5.80
2018-06-21T08:21:33.602Z,9.00
2018-06-21T08:22:33.534Z,7.90
2018-06-21T08:23:33.502Z,10.50
2018-06-21T08:24:34.428Z,8.30
2018-06-21T08:25:33.334Z,6.70
2018-06-21T08:26:33.269Z,5.90
2018-06-21T08:27:33.138Z,8.10
2018-06-21T08:28:33.176Z,5.90
2018-06-21T08:29:33.008Z,6.60
2018-06-21T08:30:33.013Z,8.10
2018-06-21T08:31:32.819Z,6.20
2018-06-21T08:34:14.881Z,8.80
2018-06-21T08:35:14.942Z,4.10
2018-06-21T08:36:14.758Z,5.50
2018-06-21T08:38:56.924Z,5.70
2018-06-21T08:39:56.936Z,5.30
2018-06-21T08:40:56.851Z,7.40
2018-06-21T08:41:56.683Z,6.50
2018-06-21T08:42:56.573Z,5.50
2018-06-21T08:43:56.648Z,6.70
2018-06-21T08:44:56.499Z,4.20
2018-06-21T08:45:56.473Z,6.40
2018-06-21T08:46:56.303Z,9.90
2018-06-21T08:47:56.417Z,5.90
2018-06-21T08:48:56.175Z,6.10
2018-06-21T08:49:56.195Z,6.00
2018-06-21T08:50:56.040Z,5.70
2018-06-21T08:51:55.982Z,7.30
2018-06-21T08:52:55.829Z,8.50
2018-06-21T08:53:56.769Z,6.30
2018-06-21T08:54:55.843Z,5.40
2018-06-21T08:55:58.147Z,6.10
2018-06-21T08:56:55.644Z,6.10
2018-06-21T08:57:55.476Z,7.40
2018-06-21T08:58:55.417Z,7.00
2018-06-21T09:01:37.438Z,8.60
2018-06-21T09:04:19.394Z,6.80
2018-06-21T09:05:19.373Z,6.50
2018-06-21T09:06:19.284Z,6.80
2018-06-21T09:07:19.209Z,8.20
2018-06-21T09:08:19.127Z,5.20
2018-06-21T09:11:01.406Z,5.40
2018-06-21T09:12:02.383Z,8.10
2018-06-21T09:13:01.289Z,8.50
2018-06-21T09:15:43.414Z,8.90
2018-06-21T09:16:43.393Z,7.00
2018-06-21T09:17:43.298Z,7.70
2018-06-21T09:18:43.188Z,7.80
2018-06-21T09:19:43.104Z,4.90
2018-06-21T09:22:25.428Z,6.20
2018-06-21T09:23:25.359Z,7.00
2018-06-21T09:24:25.261Z,6.00
2018-06-21T09:27:07.434Z,6.80
2018-06-21T09:28:08.388Z,6.40
2018-06-21T09:29:07.262Z,5.20
2018-06-21T09:31:49.421Z,5.50
2018-06-21T09:32:49.347Z,6.40
2018-06-21T09:33:49.297Z,7.10
2018-06-21T09:34:49.205Z,6.00
2018-06-21T09:35:49.134Z,7.50
2018-06-21T09:38:31.434Z,6.80
2018-06-21T09:39:31.338Z,11.20
2018-06-21T09:40:31.264Z,7.30
2018-06-21T09:41:31.199Z,7.00
2018-06-21T09:42:31.149Z,6.40
2018-06-21T09:43:31.095Z,6.30
2018-06-21T09:44:30.989Z,6.10
2018-06-21T09:47:12.927Z,8.20
2018-06-21T09:48:12.879Z,6.30
2018-06-21T09:49:12.792Z,5.50
2018-06-21T09:51:54.932Z,5.80
2018-06-21T09:54:36.945Z,6.10
2018-06-21T09:57:18.910Z,6.10
2018-06-21T09:58:18.860Z,7.60
2018-06-21T09:59:18.806Z,4.90
2018-06-21T10:00:18.705Z,6.70
2018-06-21T10:01:18.629Z,6.50
2018-06-21T10:02:18.590Z,9.60
2018-06-21T10:03:18.495Z,5.30
2018-06-21T10:04:18.426Z,7.30
2018-06-21T10:05:18.393Z,8.60
2018-06-21T10:06:18.272Z,5.90
2018-06-21T10:07:18.198Z,5.50
2018-06-21T10:08:18.153Z,5.80
2018-06-21T10:09:18.068Z,8.10
2018-06-21T10:10:18.005Z,5.10
2018-06-21T10:11:17.934Z,5.20
2018-06-21T10:13:59.932Z,6.60
2018-06-21T10:14:59.927Z,5.90
2018-06-21T10:15:59.799Z,4.20
2018-06-21T10:16:59.841Z,5.30
2018-06-21T10:17:59.646Z,8.40
2018-06-21T10:18:59.616Z,10.50
2018-06-21T10:19:59.502Z,8.80
2018-06-21T10:22:41.453Z,8.00
2018-06-21T10:23:41.416Z,7.40
2018-06-21T10:24:41.281Z,5.80
2018-06-21T10:25:41.332Z,8.70
2018-06-21T10:26:41.217Z,8.80
2018-06-21T10:27:41.150Z,6.20
2018-06-21T10:28:41.005Z,7.60
2018-06-21T10:29:41.056Z,7.60
2018-06-21T10:30:40.871Z,8.50
2018-06-21T10:31:40.834Z,7.80
2018-06-21T10:32:40.742Z,8.70
2018-06-21T10:33:40.665Z,7.50
2018-06-21T10:34:40.582Z,5.10
2018-06-21T10:35:40.571Z,9.30
2018-06-21T10:36:40.462Z,6.50
2018-06-21T10:37:40.429Z,7.30
2018-06-21T10:38:40.342Z,5.60
2018-06-21T10:39:42.355Z,6.00
2018-06-21T10:40:40.156Z,7.00
2018-06-21T10:41:41.164Z,6.90
2018-06-21T10:42:40.134Z,4.30
2018-06-21T10:45:21.938Z,5.80
2018-06-21T10:48:03.994Z,5.00
2018-06-21T10:49:03.984Z,5.00
2018-06-21T10:50:03.799Z,7.30
2018-06-21T10:51:03.828Z,8.50
2018-06-21T10:52:03.673Z,9.50
2018-06-21T10:53:03.642Z,5.50
2018-06-21T10:54:03.564Z,7.50
2018-06-21T10:55:03.488Z,6.50
2018-06-21T10:56:03.402Z,7.10
2018-06-21T10:57:03.350Z,4.50
2018-06-21T10:58:03.234Z,6.10
2018-06-21T10:59:03.310Z,5.90
2018-06-21T11:00:03.121Z,5.90
2018-06-21T11:01:03.162Z,5.80
2018-06-21T11:02:02.968Z,10.10
2018-06-21T11:03:03.020Z,4.90
2018-06-21T11:04:02.835Z,6.50
2018-06-21T11:05:02.774Z,5.60
2018-06-21T11:06:02.692Z,5.30
2018-06-21T11:07:02.693Z,7.50
2018-06-21T11:08:02.613Z,4.30
2018-06-21T11:10:44.450Z,10.10
2018-06-21T11:11:44.493Z,3.10
2018-06-21T11:12:44.345Z,5.70
2018-06-21T11:13:44.349Z,5.50
2018-06-21T11:14:44.193Z,7.20
2018-06-21T11:17:26.449Z,5.50
2018-06-21T11:18:26.427Z,8.50
2018-06-21T11:19:26.305Z,6.70
2018-06-21T11:22:08.466Z,4.40
2018-06-21T11:24:50.483Z,8.70
2018-06-21T11:25:50.441Z,4.30
2018-06-21T11:26:50.417Z,5.70
2018-06-21T11:29:32.499Z,6.70
2018-06-21T11:30:32.445Z,5.40
2018-06-21T11:31:32.320Z,7.50
2018-06-21T11:32:32.250Z,4.20
2018-06-21T11:33:32.177Z,5.50
2018-06-21T11:34:32.136Z,6.60
2018-06-21T11:35:32.032Z,4.30
2018-06-21T11:36:32.063Z,7.30
2018-06-21T11:37:31.909Z,8.60
2018-06-21T11:38:31.885Z,7.40
2018-06-21T11:39:31.766Z,3.40
2018-06-21T11:40:32.774Z,9.10
2018-06-21T11:41:31.660Z,7.10
2018-06-21T11:42:31.613Z,7.20
2018-06-21T11:43:31.484Z,6.70
2018-06-21T11:44:31.545Z,5.80
2018-06-21T11:45:31.365Z,7.00
2018-06-21T11:46:31.327Z,6.90
2018-06-21T11:47:31.229Z,7.40
2018-06-21T11:48:31.245Z,8.00
2018-06-21T11:49:31.076Z,7.10
2018-06-21T11:50:31.087Z,8.50
2018-06-21T11:51:30.949Z,5.90
2018-06-21T11:54:12.991Z,5.70
2018-06-21T11:56:55.191Z,5.50
2018-06-21T11:57:54.944Z,8.10
2018-06-21T11:58:54.833Z,7.70
2018-06-21T11:59:54.846Z,7.30
2018-06-21T12:00:54.723Z,6.10
2018-06-21T12:03:36.975Z,9.60
2018-06-21T12:04:36.964Z,9.40
2018-06-21T12:05:36.855Z,6.30
2018-06-21T12:06:36.799Z,5.30
2018-06-21T12:07:36.751Z,5.10
2018-06-21T12:10:19.071Z,7.00
2018-06-21T12:11:19.072Z,8.30
2018-06-21T12:12:18.819Z,8.00
2018-06-21T12:13:18.757Z,5.80
2018-06-21T12:14:18.668Z,5.90
2018-06-21T12:17:01.014Z,8.90
2018-06-21T12:19:42.978Z,6.20
2018-06-21T12:22:25.005Z,9.50
2018-06-21T12:25:06.972Z,4.90
2018-06-21T12:26:06.981Z,5.50
2018-06-21T12:27:06.844Z,5.70
2018-06-21T12:28:06.741Z,6.70
2018-06-21T12:29:06.666Z,7.30
2018-06-21T12:30:06.598Z,6.10
2018-06-21T12:31:06.507Z,10.00
2018-06-21T12:32:07.496Z,4.50
2018-06-21T12:33:06.372Z,6.40
2018-06-21T12:34:06.302Z,8.50
2018-06-21T12:35:06.202Z,8.70
2018-06-21T12:37:48.519Z,7.60
2018-06-21T12:38:48.421Z,7.50
2018-06-21T12:39:48.337Z,8.10
2018-06-21T12:40:48.261Z,11.20
2018-06-21T12:41:48.175Z,9.30
2018-06-21T12:42:48.143Z,7.80
2018-06-21T12:43:48.062Z,4.90
2018-06-21T12:44:47.948Z,7.50
2018-06-21T12:45:47.863Z,6.90
2018-06-21T12:48:30.188Z,6.30
2018-06-21T12:49:29.993Z,7.20
2018-06-21T12:50:29.856Z,7.10
2018-06-21T12:51:29.996Z,5.60
2018-06-21T12:52:30.058Z,5.50
2018-06-21T12:53:29.615Z,6.10
2018-06-21T12:54:29.544Z,5.70
2018-06-21T12:55:30.466Z,5.70
2018-06-21T12:56:29.476Z,7.10
2018-06-21T12:57:29.357Z,6.50
2018-06-21T12:58:29.285Z,8.20
2018-06-21T13:01:16.141Z,7.00
2018-06-21T13:03:58.018Z,8.00
2018-06-21T13:04:58.958Z,6.80
2018-06-21T13:05:57.853Z,6.50
2018-06-21T13:06:57.766Z,7.20
2018-06-21T13:07:57.683Z,7.00
2018-06-21T13:08:57.641Z,7.40
2018-06-21T13:09:57.530Z,7.20
2018-06-21T13:10:57.481Z,8.60
2018-06-21T13:11:57.367Z,9.00
2018-06-21T13:12:57.292Z,12.20
2018-06-21T13:13:57.246Z,5.60
2018-06-21T13:14:57.158Z,5.70
2018-06-21T13:15:57.086Z,17.80
2018-06-21T13:16:58.995Z,10.40
2018-06-21T13:17:56.905Z,8.50
2018-06-21T13:18:56.840Z,8.10
2018-06-21T13:19:56.763Z,10.30
2018-06-21T13:20:56.710Z,4.00
2018-06-21T13:21:56.688Z,7.80
2018-06-21T13:22:56.542Z,11.00
2018-06-21T13:23:56.461Z,7.90
2018-06-21T13:24:56.685Z,7.80
2018-06-21T13:25:56.450Z,7.90
2018-06-21T13:26:57.246Z,10.00
2018-06-21T13:27:56.148Z,7.20
2018-06-21T13:28:56.076Z,9.00
2018-06-21T13:29:55.986Z,9.10
2018-06-21T13:30:56.932Z,9.80
2018-06-21T13:31:55.842Z,9.30
2018-06-21T13:32:55.769Z,10.20
2018-06-21T13:33:55.676Z,8.40
2018-06-21T13:36:38.088Z,6.00
2018-06-21T13:37:37.448Z,7.80
2018-06-21T13:38:37.353Z,5.20
2018-06-21T13:39:37.372Z,7.70
2018-06-21T13:40:37.213Z,6.90
2018-06-21T13:43:19.554Z,7.00
2018-06-21T13:44:19.424Z,6.90
2018-06-21T13:45:19.377Z,7.60
2018-06-21T13:46:19.317Z,4.20
2018-06-21T13:47:19.225Z,8.50
2018-06-21T13:48:19.222Z,7.90
2018-06-21T13:49:19.046Z,9.30
2018-06-21T13:50:18.998Z,7.70
2018-06-21T13:51:18.877Z,7.60
2018-06-21T13:52:19.914Z,7.50
2018-06-21T13:53:18.807Z,7.10
2018-06-21T13:54:18.649Z,5.00
2018-06-21T13:55:18.600Z,7.90
2018-06-21T13:58:00.554Z,7.30
2018-06-21T13:59:00.445Z,8.50
2018-06-21T14:00:00.370Z,6.50
2018-06-21T14:01:00.350Z,4.90
2018-06-21T14:02:00.221Z,8.80
2018-06-21T14:03:00.323Z,8.10
2018-06-21T14:04:00.180Z,5.80
2018-06-21T14:05:00.114Z,8.60
2018-06-21T14:05:59.893Z,8.50
2018-06-21T14:08:42.140Z,7.80
2018-06-21T14:09:42.004Z,9.60
2018-06-21T14:10:41.883Z,6.00
2018-06-21T14:11:41.900Z,8.80
2018-06-21T14:12:41.706Z,6.10
2018-06-21T14:13:41.745Z,6.30
2018-06-21T14:14:41.568Z,6.90
2018-06-21T14:17:23.518Z,9.80
2018-06-21T14:20:17.090Z,9.00
2018-06-21T14:21:16.993Z,4.40
2018-06-21T14:22:16.862Z,7.50
2018-06-21T14:23:16.903Z,7.50
2018-06-21T14:24:16.703Z,7.00
2018-06-21T14:25:17.663Z,7.40
2018-06-21T14:26:16.544Z,7.60
2018-06-21T14:28:58.515Z,7.20
2018-06-21T14:29:58.573Z,7.30
2018-06-21T14:30:58.467Z,6.80
2018-06-21T14:31:58.330Z,4.70
2018-06-21T14:32:58.217Z,7.60
2018-06-21T14:33:58.259Z,6.60
2018-06-21T14:34:58.042Z,7.80
2018-06-21T14:35:59.105Z,5.50
2018-06-21T14:36:57.881Z,7.40
2018-06-21T14:37:57.845Z,7.50
2018-06-21T14:38:57.735Z,6.80
2018-06-21T14:39:57.765Z,7.40
2018-06-21T14:40:57.643Z,5.80
2018-06-21T14:41:57.567Z,8.60
2018-06-21T14:42:57.451Z,9.50
2018-06-21T14:43:57.471Z,7.00
2018-06-21T14:44:57.272Z,9.40
2018-06-21T14:45:57.335Z,6.90
2018-06-21T14:46:57.127Z,7.20
2018-06-21T14:47:57.114Z,7.30
2018-06-21T14:48:57.074Z,6.40
2018-06-21T14:49:57.004Z,6.90
2018-06-21T14:50:56.829Z,6.00
2018-06-21T14:51:56.840Z,8.30
2018-06-21T14:52:56.651Z,6.30
2018-06-21T14:55:38.531Z,8.70
2018-06-21T14:56:38.548Z,8.10
2018-06-21T14:57:38.373Z,10.60
2018-06-21T14:58:38.436Z,9.10
2018-06-21T14:59:38.234Z,8.10
2018-06-21T15:00:38.252Z,8.60
2018-06-21T15:01:38.115Z,7.40
2018-06-21T15:02:38.075Z,6.30
2018-06-21T15:03:37.917Z,8.00
2018-06-21T15:06:20.092Z,5.40
2018-06-21T15:07:20.093Z,6.20
2018-06-21T15:08:19.912Z,7.70
2018-06-21T15:09:19.875Z,7.80
2018-06-21T15:10:19.848Z,7.30
2018-06-21T15:11:19.703Z,5.90
2018-06-21T15:12:19.573Z,5.70
2018-06-21T15:13:19.597Z,5.30
2018-06-21T15:14:19.409Z,6.30
2018-06-21T15:17:01.581Z,7.20
2018-06-21T15:19:43.564Z,7.80
2018-06-21T15:22:25.545Z,10.20
2018-06-21T15:25:11.581Z,6.50
2018-06-21T15:27:53.584Z,6.40
2018-06-21T15:28:53.559Z,6.50
2018-06-21T15:29:53.380Z,6.90
2018-06-21T15:57:36.300Z,5.70
2018-06-21T15:58:34.979Z,5.20
2018-06-21T16:01:17.083Z,7.10
2018-06-21T16:02:17.036Z,6.60
2018-06-21T16:03:16.895Z,6.70
2018-06-21T16:04:16.846Z,9.90
2018-06-21T16:05:16.750Z,4.90
2018-06-21T16:06:16.759Z,4.10
2018-06-21T16:07:16.588Z,4.70
2018-06-21T16:08:16.563Z,6.30
2018-06-21T16:09:16.436Z,6.10
2018-06-21T16:10:16.405Z,7.50
2018-06-21T16:29:39.077Z,4.50
2018-06-21T16:30:38.936Z,6.50
2018-06-21T16:31:39.032Z,5.80
2018-06-21T16:32:38.754Z,9.30
2018-06-21T16:33:39.244Z,6.60
2018-06-21T16:34:38.607Z,6.80
2018-06-21T16:37:20.572Z,4.70
2018-06-21T16:38:41.456Z,6.60
2018-06-21T16:39:20.391Z,5.50
2018-06-21T16:40:22.409Z,4.80
2018-06-21T16:41:20.243Z,6.60
2018-06-21T16:42:20.564Z,8.10
2018-06-21T16:43:20.073Z,6.60
2018-06-21T16:44:20.103Z,7.00
2018-06-21T16:45:19.935Z,5.00
2018-06-21T16:46:19.884Z,4.80
2018-06-21T16:47:19.811Z,8.40
2018-06-21T16:48:19.804Z,5.50
2018-06-21T16:49:19.615Z,6.00
2018-06-21T16:50:19.613Z,7.30
2018-06-21T16:51:19.471Z,5.50
2018-06-21T16:52:19.447Z,4.60
2018-06-21T16:53:19.341Z,5.70
2018-06-21T16:54:19.322Z,4.60
2018-06-21T16:55:19.133Z,7.20
2018-06-21T16:56:19.057Z,11.70
2018-06-21T16:57:18.988Z,4.90
2018-06-21T16:58:18.985Z,7.00
2018-06-21T16:59:18.853Z,6.60
2018-06-21T17:00:18.854Z,7.20